createdAt,value
2016-09-24T00:00:39.559Z,0
2016-09-24T00:01:39.214Z,0
2016-09-24T00:02:39.178Z,0
2016-09-24T00:03:39.143Z,0
2016-09-24T00:04:39.110Z,0
2016-09-24T00:05:39.374Z,0
2016-09-24T00:06:39.037Z,0
2016-09-24T00:07:39.305Z,0
2016-09-24T00:08:38.970Z,0
2016-09-24T00:09:38.929Z,0
2016-09-24T00:10:39.192Z,0
2016-09-24T00:11:38.856Z,0
2016-09-24T00:12:39.123Z,0
2016-09-24T00:13:39.083Z,0
2016-09-24T00:14:38.447Z,0
2016-09-24T00:15:39.009Z,0
2016-09-24T00:16:38.977Z,0
2016-09-24T00:17:38.940Z,0
2016-09-24T00:18:38.905Z,0
2016-09-24T00:19:38.264Z,0
2016-09-24T00:20:37.927Z,0
2016-09-24T00:21:38.495Z,0
2016-09-24T00:22:38.773Z,0
2016-09-24T00:23:38.421Z,0
2016-09-24T00:24:38.092Z,0
2016-09-24T00:25:38.351Z,0
2016-09-24T00:26:38.312Z,0
2016-09-24T00:27:38.580Z,0
2016-09-24T00:28:38.250Z,0
2016-09-24T00:29:38.507Z,0
2016-09-24T00:30:38.478Z,0
2016-09-24T00:31:38.130Z,0
2016-09-24T00:32:38.103Z,0
2016-09-24T00:33:38.060Z,0
2016-09-24T00:34:38.325Z,0
2016-09-24T00:35:37.988Z,0
2016-09-24T00:36:37.648Z,0
2016-09-24T00:37:37.923Z,0
2016-09-24T00:38:37.577Z,0
2016-09-24T00:39:37.539Z,0
2016-09-24T00:40:38.102Z,0
2016-09-24T00:41:37.469Z,0
2016-09-24T00:42:37.427Z,0
2016-09-24T00:43:37.706Z,0
2016-09-24T00:44:37.662Z,0
2016-09-24T00:45:37.926Z,0
2016-09-24T00:46:37.587Z,0
2016-09-24T00:47:37.851Z,0
2016-09-24T00:48:37.210Z,0
2016-09-24T00:49:37.478Z,0
2016-09-24T00:50:37.441Z,0
2016-09-24T00:51:37.710Z,0
2016-09-24T00:52:37.675Z,0
2016-09-24T00:53:37.335Z,0
2016-09-24T00:54:37.307Z,0
2016-09-24T00:55:37.269Z,0
2016-09-24T00:56:37.539Z,0
2016-09-24T00:57:37.191Z,0
2016-09-24T00:58:37.148Z,0
2016-09-24T00:59:37.439Z,0
2016-09-24T01:00:37.082Z,0
2016-09-24T01:01:37.363Z,0
2016-09-24T01:02:37.312Z,0
2016-09-24T01:03:37.270Z,0
2016-09-24T01:04:36.933Z,0
2016-09-24T01:05:36.902Z,0
2016-09-24T01:06:36.857Z,0
2016-09-24T01:07:37.141Z,0
2016-09-24T01:08:37.091Z,0
2016-09-24T01:09:36.746Z,0
2016-09-24T01:10:37.022Z,0
2016-09-24T01:11:36.683Z,0
2016-09-24T01:12:36.648Z,0
2016-09-24T01:13:36.909Z,0
2016-09-24T01:14:36.576Z,0
2016-09-24T01:15:36.536Z,0
2016-09-24T01:16:36.804Z,0
2016-09-24T01:17:36.761Z,0
2016-09-24T01:18:36.722Z,0
2016-09-24T01:19:36.386Z,0
2016-09-24T01:20:36.349Z,0
2016-09-24T01:21:36.619Z,0
2016-09-24T01:22:36.577Z,0
2016-09-24T01:23:36.251Z,0
2016-09-24T01:24:36.506Z,0
2016-09-24T01:25:36.475Z,0
2016-09-24T01:26:36.434Z,0
2016-09-24T01:27:36.093Z,0
2016-09-24T01:28:36.064Z,0
2016-09-24T01:29:36.024Z,0
2016-09-24T01:30:36.294Z,0
2016-09-24T01:31:35.954Z,0
2016-09-24T01:32:35.922Z,0
2016-09-24T01:33:36.182Z,0
2016-09-24T01:34:36.149Z,0
2016-09-24T01:35:35.805Z,0
2016-09-24T01:36:36.081Z,0
2016-09-24T01:37:35.731Z,0
2016-09-24T01:38:36.003Z,0
2016-09-24T01:39:35.965Z,0
2016-09-24T01:40:35.629Z,0
2016-09-24T01:41:35.885Z,0
2016-09-24T01:42:35.859Z,0
2016-09-24T01:43:35.811Z,0
2016-09-24T01:44:35.474Z,0
2016-09-24T01:45:35.745Z,0
2016-09-24T01:46:35.402Z,0
2016-09-24T01:47:35.661Z,0
2016-09-24T01:48:35.633Z,0
2016-09-24T01:49:35.591Z,0
2016-09-24T01:50:35.559Z,0
2016-09-24T01:51:35.216Z,0
2016-09-24T01:52:35.485Z,0
2016-09-24T01:53:35.448Z,0
2016-09-24T01:54:35.101Z,0
2016-09-24T01:55:35.073Z,0
2016-09-24T01:56:35.340Z,0
2016-09-24T01:57:34.998Z,0
2016-09-24T01:58:35.265Z,0
2016-09-24T01:59:35.224Z,0
2016-09-24T02:00:34.584Z,0
2016-09-24T02:01:34.546Z,0
2016-09-24T02:02:35.115Z,0
2016-09-24T02:03:35.077Z,0
2016-09-24T02:04:34.744Z,0
2016-09-24T02:05:35.008Z,0
2016-09-24T02:06:34.679Z,0
2016-09-24T02:07:34.633Z,0
2016-09-24T02:08:34.895Z,0
2016-09-24T02:09:34.863Z,0
2016-09-24T02:10:34.528Z,0
2016-09-24T02:11:34.193Z,0
2016-09-24T02:12:33.832Z,0
2016-09-24T02:13:34.713Z,0
2016-09-24T02:14:34.671Z,0
2016-09-24T02:15:34.038Z,0
2016-09-24T02:16:34.310Z,0
2016-09-24T02:17:34.569Z,0
2016-09-24T02:18:34.225Z,0
2016-09-24T02:19:34.191Z,0
2016-09-24T02:20:33.851Z,0
2016-09-24T02:21:33.811Z,0
2016-09-24T02:22:33.776Z,0
2016-09-24T02:23:34.035Z,0
2016-09-24T02:24:34.305Z,0
2016-09-24T02:25:33.965Z,0
2016-09-24T02:26:34.234Z,0
2016-09-24T02:27:34.203Z,0
2016-09-24T02:28:34.164Z,0
2016-09-24T02:29:34.131Z,0
2016-09-24T02:30:34.092Z,0
2016-09-24T02:31:33.753Z,0
2016-09-24T02:32:33.707Z,0
2016-09-24T02:33:33.974Z,0
2016-09-24T02:34:33.337Z,0
2016-09-24T02:35:33.600Z,0
2016-09-24T02:36:33.858Z,0
2016-09-24T02:37:33.828Z,0
2016-09-24T02:38:33.788Z,0
2016-09-24T02:39:33.449Z,0
2016-09-24T02:40:33.414Z,0
2016-09-24T02:41:33.375Z,0
2016-09-24T02:42:33.336Z,0
2016-09-24T02:43:33.311Z,0
2016-09-24T02:44:33.569Z,0
2016-09-24T02:45:33.236Z,0
2016-09-24T02:46:33.193Z,0
2016-09-24T02:47:33.164Z,0
2016-09-24T02:48:33.416Z,0
2016-09-24T02:49:33.083Z,0
2016-09-24T02:50:33.046Z,0
2016-09-24T02:51:32.713Z,0
2016-09-24T02:52:33.282Z,0
2016-09-24T02:53:33.238Z,0
2016-09-24T02:54:33.207Z,0
2016-09-24T02:55:32.857Z,0
2016-09-24T02:56:33.126Z,0
2016-09-24T02:57:33.090Z,0
2016-09-24T02:58:33.053Z,0
2016-09-24T02:59:32.406Z,0
2016-09-24T03:00:32.980Z,0
2016-09-24T03:01:32.937Z,0
2016-09-24T03:02:32.610Z,0
2016-09-24T03:03:32.563Z,0
2016-09-24T03:04:32.521Z,0
2016-09-24T03:05:32.811Z,0
2016-09-24T03:06:32.448Z,0
2016-09-24T03:07:32.117Z,0
2016-09-24T03:08:32.682Z,0
2016-09-24T03:09:32.656Z,0
2016-09-24T03:10:32.304Z,0
2016-09-24T03:11:32.280Z,0
2016-09-24T03:12:32.233Z,0
2016-09-24T03:13:32.199Z,0
2016-09-24T03:14:32.461Z,0
2016-09-24T03:15:32.416Z,0
2016-09-24T03:16:32.383Z,0
2016-09-24T03:17:31.737Z,0
2016-09-24T03:18:32.314Z,0
2016-09-24T03:19:31.971Z,0
2016-09-24T03:20:31.933Z,0
2016-09-24T03:21:32.205Z,0
2016-09-24T03:22:31.558Z,0
2016-09-24T03:23:31.534Z,0
2016-09-24T03:24:31.789Z,0
2016-09-24T03:25:31.747Z,0
2016-09-24T03:26:31.407Z,0
2016-09-24T03:27:31.370Z,0
2016-09-24T03:28:31.632Z,0
2016-09-24T03:29:31.601Z,0
2016-09-24T03:30:31.562Z,0
2016-09-24T03:31:31.525Z,0
2016-09-24T03:32:31.499Z,0
2016-09-24T03:33:31.452Z,0
2016-09-24T03:34:31.718Z,0
2016-09-24T03:35:31.082Z,0
2016-09-24T03:36:31.047Z,0
2016-09-24T03:37:31.298Z,0
2016-09-24T03:38:31.567Z,0
2016-09-24T03:39:31.535Z,0
2016-09-24T03:40:31.495Z,0
2016-09-24T03:41:31.153Z,0
2016-09-24T03:42:31.125Z,0
2016-09-24T03:43:31.086Z,0
2016-09-24T03:44:31.344Z,0
2016-09-24T03:45:30.709Z,0
2016-09-24T03:46:30.960Z,0
2016-09-24T03:47:30.932Z,0
2016-09-24T03:48:31.193Z,0
2016-09-24T03:49:30.555Z,0
2016-09-24T03:50:30.820Z,0
2016-09-24T03:51:30.779Z,0
2016-09-24T03:52:30.744Z,0
2016-09-24T03:53:30.404Z,0
2016-09-24T03:54:30.370Z,0
2016-09-24T03:55:30.624Z,0
2016-09-24T03:56:30.611Z,0
2016-09-24T03:57:30.561Z,0
2016-09-24T03:58:30.529Z,0
2016-09-24T03:59:29.885Z,0
2016-09-24T04:00:30.771Z,0
2016-09-24T04:01:30.414Z,0
2016-09-24T04:02:30.372Z,0
2016-09-24T04:03:30.345Z,0
2016-09-24T04:04:30.295Z,0
2016-09-24T04:05:30.562Z,0
2016-09-24T04:06:30.222Z,0
2016-09-24T04:07:30.492Z,0
2016-09-24T04:08:30.152Z,0
2016-09-24T04:09:30.414Z,0
2016-09-24T04:10:30.081Z,0
2016-09-24T04:11:30.037Z,0
2016-09-24T04:12:29.700Z,0
2016-09-24T04:13:29.959Z,0
2016-09-24T04:14:30.229Z,0
2016-09-24T04:15:29.581Z,0
2016-09-24T04:16:30.153Z,0
2016-09-24T04:17:30.121Z,0
2016-09-24T04:18:29.770Z,0
2016-09-24T04:19:29.741Z,0
2016-09-24T04:20:29.698Z,0
2016-09-24T04:21:29.361Z,0
2016-09-24T04:22:29.925Z,0
2016-09-24T04:23:29.584Z,0
2016-09-24T04:24:29.857Z,0
2016-09-24T04:25:29.511Z,0
2016-09-24T04:26:28.877Z,0
2016-09-24T04:27:29.731Z,0
2016-09-24T04:28:29.098Z,0
2016-09-24T04:29:29.364Z,0
2016-09-24T04:30:29.632Z,0
2016-09-24T04:31:29.590Z,0
2016-09-24T04:32:28.947Z,0
2016-09-24T04:33:28.610Z,0
2016-09-24T04:34:29.181Z,0
2016-09-24T04:35:29.432Z,0
2016-09-24T04:36:29.101Z,0
2016-09-24T04:37:29.066Z,0
2016-09-24T04:38:29.041Z,0
2016-09-24T04:39:29.290Z,0
2016-09-24T04:40:28.950Z,0
2016-09-24T04:41:29.236Z,0
2016-09-24T04:42:28.873Z,0
2016-09-24T04:43:28.848Z,0
2016-09-24T04:44:29.103Z,0
2016-09-24T04:45:28.762Z,0
2016-09-24T04:46:29.027Z,0
2016-09-24T04:47:28.988Z,0
2016-09-24T04:48:28.955Z,0
2016-09-24T04:49:28.613Z,0
2016-09-24T04:50:28.875Z,0
2016-09-24T04:51:28.539Z,0
2016-09-24T04:52:28.802Z,0
2016-09-24T04:53:28.470Z,0
2016-09-24T04:54:28.730Z,0
2016-09-24T04:55:28.093Z,0
2016-09-24T04:56:28.349Z,0
2016-09-24T04:57:28.012Z,0
2016-09-24T04:58:28.576Z,0
2016-09-24T04:59:28.239Z,0
2016-09-24T05:00:28.217Z,0
2016-09-24T05:01:28.164Z,0
2016-09-24T05:02:27.821Z,0
2016-09-24T05:03:28.089Z,0
2016-09-24T05:04:28.351Z,0
2016-09-24T05:05:28.013Z,5
2016-09-24T05:06:27.976Z,5
2016-09-24T05:07:27.953Z,5
2016-09-24T05:08:27.900Z,5
2016-09-24T05:09:27.871Z,5
2016-09-24T05:10:27.549Z,5
2016-09-24T05:11:28.091Z,5
2016-09-24T05:12:27.753Z,10
2016-09-24T05:13:28.018Z,10
2016-09-24T05:14:27.987Z,10
2016-09-24T05:15:27.631Z,10
2016-09-24T05:16:27.898Z,15
2016-09-24T05:17:27.858Z,15
2016-09-24T05:18:27.525Z,15
2016-09-24T05:19:27.503Z,20
2016-09-24T05:20:27.751Z,20
2016-09-24T05:21:27.112Z,20
2016-09-24T05:22:27.374Z,25
2016-09-24T05:23:27.338Z,25
2016-09-24T05:24:27.613Z,25
2016-09-24T05:25:26.657Z,30
2016-09-24T05:26:27.230Z,30
2016-09-24T05:27:27.487Z,30
2016-09-24T05:28:27.151Z,35
2016-09-24T05:29:27.114Z,35
2016-09-24T05:30:27.381Z,40
2016-09-24T05:31:27.346Z,45
2016-09-24T05:32:26.694Z,45
2016-09-24T05:33:27.278Z,45
2016-09-24T05:34:26.923Z,50
2016-09-24T05:35:27.197Z,55
2016-09-24T05:36:27.155Z,55
2016-09-24T05:37:26.829Z,60
2016-09-24T05:38:26.473Z,65
2016-09-24T05:39:26.733Z,70
2016-09-24T05:40:27.005Z,70
2016-09-24T05:41:26.663Z,75
2016-09-24T05:42:26.326Z,80
2016-09-24T05:43:26.888Z,85
2016-09-24T05:44:26.852Z,95
2016-09-24T05:45:26.537Z,105
2016-09-24T05:46:26.175Z,115
2016-09-24T05:47:26.747Z,120
2016-09-24T05:48:26.707Z,130
2016-09-24T05:49:26.063Z,135
2016-09-24T05:50:26.633Z,140
2016-09-24T05:51:25.991Z,145
2016-09-24T05:52:25.959Z,155
2016-09-24T05:53:25.931Z,160
2016-09-24T05:54:26.178Z,165
2016-09-24T05:55:26.150Z,170
2016-09-24T05:56:26.423Z,180
2016-09-24T05:57:26.373Z,185
2016-09-24T05:58:26.041Z,195
2016-09-24T05:59:26.008Z,205
2016-09-24T06:00:25.967Z,210
2016-09-24T06:01:25.935Z,215
2016-09-24T06:02:25.899Z,215
2016-09-24T06:03:25.866Z,215
2016-09-24T06:04:25.831Z,205
2016-09-24T06:05:25.798Z,200
2016-09-24T06:06:26.066Z,195
2016-09-24T06:07:25.721Z,200
2016-09-24T06:08:25.999Z,220
2016-09-24T06:09:25.669Z,230
2016-09-24T06:10:25.311Z,240
2016-09-24T06:11:25.582Z,270
2016-09-24T06:12:25.242Z,295
2016-09-24T06:13:25.512Z,290
2016-09-24T06:14:25.483Z,280
2016-09-24T06:15:25.447Z,265
2016-09-24T06:16:25.412Z,265
2016-09-24T06:17:25.076Z,275
2016-09-24T06:18:25.341Z,290
2016-09-24T06:19:25.624Z,295
2016-09-24T06:20:25.578Z,300
2016-09-24T06:21:25.551Z,310
2016-09-24T06:22:25.216Z,325
2016-09-24T06:23:25.476Z,340
2016-09-24T06:24:25.140Z,360
2016-09-24T06:25:24.802Z,380
2016-09-24T06:26:25.075Z,425
2016-09-24T06:27:24.746Z,440
2016-09-24T06:28:25.313Z,445
2016-09-24T06:29:24.979Z,445
2016-09-24T06:30:24.638Z,440
2016-09-24T06:31:24.616Z,450
2016-09-24T06:32:24.583Z,465
2016-09-24T06:33:25.150Z,470
2016-09-24T06:34:24.816Z,475
2016-09-24T06:35:25.083Z,475
2016-09-24T06:36:24.468Z,480
2016-09-24T06:37:24.418Z,480
2016-09-24T06:38:24.391Z,490
2016-09-24T06:39:24.656Z,495
2016-09-24T06:40:24.327Z,515
2016-09-24T06:41:24.914Z,525
2016-09-24T06:42:24.567Z,535
2016-09-24T06:43:24.540Z,540
2016-09-24T06:44:24.808Z,560
2016-09-24T06:45:24.476Z,570
2016-09-24T06:46:24.449Z,580
2016-09-24T06:47:24.721Z,595
2016-09-24T06:48:24.087Z,600
2016-09-24T06:49:24.368Z,620
2016-09-24T06:50:24.338Z,640
2016-09-24T06:51:24.602Z,650
2016-09-24T06:52:24.271Z,670
2016-09-24T06:53:24.552Z,705
2016-09-24T06:54:24.524Z,735
2016-09-24T06:55:24.186Z,745
2016-09-24T06:56:24.468Z,745
2016-09-24T06:57:24.433Z,760
2016-09-24T06:58:23.805Z,770
2016-09-24T06:59:24.091Z,780
2016-09-24T07:00:24.358Z,785
2016-09-24T07:01:24.325Z,795
2016-09-24T07:02:24.293Z,820
2016-09-24T07:03:23.982Z,840
2016-09-24T07:04:24.242Z,855
2016-09-24T07:05:23.914Z,855
2016-09-24T07:06:23.278Z,860
2016-09-24T07:07:23.873Z,865
2016-09-24T07:08:23.534Z,875
2016-09-24T07:09:24.110Z,875
2016-09-24T07:10:23.784Z,880
2016-09-24T07:11:23.755Z,880
2016-09-24T07:12:23.127Z,885
2016-09-24T07:13:23.703Z,880
2016-09-24T07:14:23.682Z,890
2016-09-24T07:15:23.063Z,895
2016-09-24T07:16:23.924Z,900
2016-09-24T07:17:23.610Z,910
2016-09-24T07:18:23.580Z,915
2016-09-24T07:19:23.866Z,925
2016-09-24T07:20:23.839Z,945
2016-09-24T07:21:22.899Z,965
2016-09-24T07:22:23.485Z,995
2016-09-24T07:23:23.463Z,1015
2016-09-24T07:24:23.443Z,1025
2016-09-24T07:25:23.412Z,1040
2016-09-24T07:26:23.395Z,1045
2016-09-24T07:27:23.361Z,1045
2016-09-24T07:28:23.354Z,1065
2016-09-24T07:29:23.317Z,1080
2016-09-24T07:30:22.987Z,1115
2016-09-24T07:31:23.271Z,1125
2016-09-24T07:32:23.546Z,1160
2016-09-24T07:33:23.531Z,1185
2016-09-24T07:34:23.206Z,1205
2016-09-24T07:35:23.489Z,1210
2016-09-24T07:36:23.158Z,1240
2016-09-24T07:37:23.133Z,1265
2016-09-24T07:38:23.132Z,1280
2016-09-24T07:39:23.091Z,1285
2016-09-24T07:40:23.065Z,1285
2016-09-24T07:42:22.415Z,1310
2016-09-24T07:43:23.301Z,1325
2016-09-24T07:44:22.673Z,1315
2016-09-24T07:45:23.259Z,1310
2016-09-24T07:46:22.940Z,1310
2016-09-24T07:47:22.909Z,1320
2016-09-24T07:48:22.897Z,1320
2016-09-24T07:49:22.871Z,1340
2016-09-24T07:50:23.148Z,1375
2016-09-24T07:51:22.528Z,1380
2016-09-24T07:52:23.107Z,1400
2016-09-24T07:53:22.781Z,1400
2016-09-24T07:54:22.755Z,1360
2016-09-24T07:55:22.441Z,1345
2016-09-24T07:56:22.714Z,1425
2016-09-24T07:57:22.698Z,1430
2016-09-24T07:58:22.977Z,1430
2016-09-24T07:59:21.751Z,1430
2016-09-24T08:00:22.627Z,1440
2016-09-24T08:01:22.905Z,1425
2016-09-24T08:02:22.602Z,1440
2016-09-24T08:03:22.879Z,1440
2016-09-24T08:04:22.549Z,1445
2016-09-24T08:05:22.542Z,1465
2016-09-24T08:06:22.810Z,1465
2016-09-24T08:07:22.497Z,1470
2016-09-24T08:08:22.759Z,1490
2016-09-24T08:09:22.748Z,1520
2016-09-24T08:10:22.130Z,1525
2016-09-24T08:11:22.718Z,1535
2016-09-24T08:12:21.777Z,1555
2016-09-24T08:13:22.364Z,1575
2016-09-24T08:14:22.648Z,1590
2016-09-24T08:15:22.322Z,1565
2016-09-24T08:16:22.004Z,1470
2016-09-24T08:17:22.284Z,1490
2016-09-24T08:18:22.577Z,1500
2016-09-24T08:19:22.243Z,1465
2016-09-24T08:20:22.522Z,1500
2016-09-24T08:21:21.900Z,1510
2016-09-24T08:22:22.485Z,1470
2016-09-24T08:23:22.460Z,1650
2016-09-24T08:24:22.444Z,1690
2016-09-24T08:25:22.421Z,1690
2016-09-24T08:26:22.402Z,1700
2016-09-24T08:27:22.091Z,1705
2016-09-24T08:28:22.059Z,1730
2016-09-24T08:29:22.041Z,1725
2016-09-24T08:30:22.324Z,1715
2016-09-24T08:31:22.314Z,1710
2016-09-24T08:32:22.303Z,1725
2016-09-24T08:33:21.970Z,1735
2016-09-24T08:34:21.964Z,1770
2016-09-24T08:35:21.923Z,1735
2016-09-24T08:36:21.610Z,1730
2016-09-24T08:37:21.879Z,1725
2016-09-24T08:38:22.168Z,1730
2016-09-24T08:39:21.567Z,1770
2016-09-24T08:40:21.519Z,1790
2016-09-24T08:41:22.124Z,1765
2016-09-24T08:42:21.786Z,1740
2016-09-24T08:43:21.767Z,1760
2016-09-24T08:44:21.758Z,1775
2016-09-24T08:45:21.727Z,1820
2016-09-24T08:46:21.710Z,1850
2016-09-24T08:47:21.403Z,1825
2016-09-24T08:48:21.975Z,1870
2016-09-24T08:49:21.952Z,1870
2016-09-24T08:50:21.643Z,1850
2016-09-24T08:51:21.929Z,1875
2016-09-24T08:52:21.597Z,1845
2016-09-24T08:53:21.274Z,1860
2016-09-24T08:54:21.871Z,1895
2016-09-24T08:55:21.545Z,1885
2016-09-24T08:56:21.828Z,1850
2016-09-24T08:57:20.902Z,1880
2016-09-24T08:58:21.789Z,1900
2016-09-24T08:59:21.775Z,1870
2016-09-24T09:00:21.765Z,1825
2016-09-24T09:01:21.737Z,1755
2016-09-24T09:02:21.122Z,1815
2016-09-24T09:03:21.393Z,1785
2016-09-24T09:04:21.075Z,1810
2016-09-24T09:05:21.364Z,1830
2016-09-24T09:06:21.341Z,1825
2016-09-24T09:07:21.321Z,1785
2016-09-24T09:08:21.309Z,1760
2016-09-24T09:09:21.587Z,1745
2016-09-24T09:10:21.266Z,1760
2016-09-24T09:11:21.548Z,1815
2016-09-24T09:12:21.543Z,1775
2016-09-24T09:13:21.527Z,1785
2016-09-24T09:14:21.492Z,1750
2016-09-24T09:15:21.479Z,1755
2016-09-24T09:16:21.154Z,1720
2016-09-24T09:17:21.441Z,1780
2016-09-24T09:18:21.118Z,1775
2016-09-24T09:19:21.402Z,1785
2016-09-24T09:20:21.086Z,1680
2016-09-24T09:21:21.068Z,1640
2016-09-24T09:22:21.352Z,1725
2016-09-24T09:23:21.335Z,1865
2016-09-24T09:24:21.314Z,1905
2016-09-24T09:25:20.996Z,1905
2016-09-24T09:26:21.271Z,1905
2016-09-24T09:27:21.255Z,1855
2016-09-24T09:28:21.250Z,1825
2016-09-24T09:29:21.216Z,1770
2016-09-24T09:30:20.900Z,1770
2016-09-24T09:31:20.885Z,1795
2016-09-24T09:32:21.163Z,1735
2016-09-24T09:33:20.850Z,1695
2016-09-24T09:34:20.822Z,1570
2016-09-24T09:35:21.114Z,1245
2016-09-24T09:36:21.097Z,1105
2016-09-24T09:37:21.090Z,1100
2016-09-24T09:38:21.071Z,1075
2016-09-24T09:39:20.734Z,1070
2016-09-24T09:40:20.736Z,1070
2016-09-24T09:41:20.706Z,1075
2016-09-24T09:42:20.689Z,1070
2016-09-24T09:43:20.681Z,1065
2016-09-24T09:44:20.653Z,1080
2016-09-24T09:45:20.936Z,1075
2016-09-24T09:46:20.625Z,1070
2016-09-24T09:47:20.906Z,1040
2016-09-24T09:48:20.590Z,1020
2016-09-24T09:49:20.869Z,1025
2016-09-24T09:50:20.854Z,1035
2016-09-24T09:51:20.539Z,1045
2016-09-24T09:52:20.818Z,1060
2016-09-24T09:53:20.809Z,1055
2016-09-24T09:54:20.793Z,1055
2016-09-24T09:55:20.463Z,1055
2016-09-24T09:56:20.742Z,1060
2016-09-24T09:57:20.421Z,1065
2016-09-24T09:58:20.405Z,1060
2016-09-24T09:59:20.393Z,1055
2016-09-24T10:00:20.675Z,1045
2016-09-24T10:01:20.355Z,1365
2016-09-24T10:02:20.639Z,1855
2016-09-24T10:03:20.328Z,1935
2016-09-24T10:04:20.601Z,1950
2016-09-24T10:05:20.582Z,1965
2016-09-24T10:06:20.567Z,1965
2016-09-24T10:07:20.249Z,1990
2016-09-24T10:08:20.225Z,2065
2016-09-24T10:09:19.913Z,2070
2016-09-24T10:10:19.586Z,2095
2016-09-24T10:11:20.179Z,2050
2016-09-24T10:12:20.466Z,2070
2016-09-24T10:13:20.130Z,2030
2016-09-24T10:14:20.422Z,2060
2016-09-24T10:15:20.404Z,2140
2016-09-24T10:16:20.415Z,2125
2016-09-24T10:17:20.374Z,2085
2016-09-24T10:18:20.348Z,2050
2016-09-24T10:19:19.729Z,2065
2016-09-24T10:20:20.241Z,2020
2016-09-24T10:21:19.991Z,2040
2016-09-24T10:22:20.299Z,2175
2016-09-24T10:23:20.253Z,2185
2016-09-24T10:24:20.236Z,2170
2016-09-24T10:25:19.628Z,2255
2016-09-24T10:26:19.894Z,2240
2016-09-24T10:27:19.883Z,2215
2016-09-24T10:28:19.867Z,2200
2016-09-24T10:29:20.144Z,2090
2016-09-24T10:30:20.117Z,2185
2016-09-24T10:31:19.807Z,2230
2016-09-24T10:32:20.094Z,2225
2016-09-24T10:33:18.864Z,2185
2016-09-24T10:34:20.048Z,2170
2016-09-24T10:35:20.038Z,2205
2016-09-24T10:36:20.006Z,2200
2016-09-24T10:37:19.984Z,2225
2016-09-24T10:38:19.671Z,2300
2016-09-24T10:39:19.952Z,2155
2016-09-24T10:40:19.633Z,1460
2016-09-24T10:41:19.912Z,945
2016-09-24T10:42:19.592Z,910
2016-09-24T10:43:19.269Z,890
2016-09-24T10:44:19.551Z,870
2016-09-24T10:45:19.845Z,825
2016-09-24T10:46:19.515Z,830
2016-09-24T10:47:19.497Z,810
2016-09-24T10:48:19.783Z,755
2016-09-24T10:49:19.459Z,735
2016-09-24T10:50:19.467Z,740
2016-09-24T10:51:19.720Z,815
2016-09-24T10:52:19.393Z,945
2016-09-24T10:53:19.383Z,1005
2016-09-24T10:54:19.357Z,965
2016-09-24T10:55:19.637Z,865
2016-09-24T10:56:19.314Z,770
2016-09-24T10:57:19.295Z,780
2016-09-24T10:58:19.295Z,900
2016-09-24T10:59:19.248Z,1605
2016-09-24T11:00:19.537Z,2060
2016-09-24T11:01:19.516Z,2085
2016-09-24T11:02:19.191Z,2080
2016-09-24T11:03:19.512Z,2110
2016-09-24T11:04:19.150Z,2105
2016-09-24T11:05:19.129Z,2090
2016-09-24T11:06:19.111Z,2160
2016-09-24T11:07:19.389Z,2140
2016-09-24T11:08:19.377Z,1955
2016-09-24T11:09:18.740Z,1270
2016-09-24T11:10:19.022Z,625
2016-09-24T11:11:19.000Z,555
2016-09-24T11:12:19.292Z,535
2016-09-24T11:13:18.662Z,525
2016-09-24T11:14:18.933Z,515
2016-09-24T11:15:19.220Z,510
2016-09-24T11:16:19.201Z,500
2016-09-24T11:17:19.170Z,485
2016-09-24T11:18:19.152Z,475
2016-09-24T11:19:18.828Z,455
2016-09-24T11:20:18.803Z,450
2016-09-24T11:21:19.082Z,450
2016-09-24T11:22:18.773Z,525
2016-09-24T11:23:19.034Z,930
2016-09-24T11:24:19.022Z,1220
2016-09-24T11:25:18.689Z,1020
2016-09-24T11:26:18.978Z,510
2016-09-24T11:27:18.654Z,370
2016-09-24T11:28:18.633Z,360
2016-09-24T11:29:18.907Z,350
2016-09-24T11:30:18.590Z,340
2016-09-24T11:31:18.544Z,330
2016-09-24T11:32:18.228Z,325
2016-09-24T11:33:18.508Z,320
2016-09-24T11:34:18.479Z,320
2016-09-24T11:35:18.774Z,315
2016-09-24T11:36:18.749Z,305
2016-09-24T11:37:18.704Z,300
2016-09-24T11:38:18.374Z,290
2016-09-24T11:39:18.651Z,285
2016-09-24T11:40:18.026Z,270
2016-09-24T11:41:18.303Z,260
2016-09-24T11:42:18.289Z,250
2016-09-24T11:43:18.550Z,250
2016-09-24T11:44:18.524Z,245
2016-09-24T11:45:18.205Z,245
2016-09-24T11:46:18.165Z,245
2016-09-24T11:47:18.156Z,245
2016-09-24T11:48:18.119Z,240
2016-09-24T11:49:18.398Z,240
2016-09-24T11:50:18.365Z,235
2016-09-24T11:51:18.035Z,235
2016-09-24T11:52:18.313Z,230
2016-09-24T11:53:17.984Z,230
2016-09-24T11:54:17.645Z,230
2016-09-24T11:55:18.230Z,230
2016-09-24T11:56:18.207Z,225
2016-09-24T11:57:17.876Z,225
2016-09-24T11:58:18.145Z,225
2016-09-24T11:59:18.110Z,225
2016-09-24T12:00:18.091Z,225
2016-09-24T12:01:17.757Z,225
2016-09-24T12:02:18.036Z,225
2016-09-24T12:03:17.699Z,220
2016-09-24T12:04:17.978Z,220
2016-09-24T12:05:17.646Z,220
2016-09-24T12:06:17.927Z,220
2016-09-24T12:07:17.293Z,215
2016-09-24T12:08:17.558Z,215
2016-09-24T12:09:17.541Z,215
2016-09-24T12:10:17.211Z,215
2016-09-24T12:11:17.485Z,215
2016-09-24T12:12:17.754Z,210
2016-09-24T12:13:17.422Z,210
2016-09-24T12:14:17.700Z,210
2016-09-24T12:15:17.670Z,205
2016-09-24T12:16:17.346Z,205
2016-09-24T12:17:17.621Z,205
2016-09-24T12:18:16.968Z,205
2016-09-24T12:19:16.647Z,200
2016-09-24T12:20:17.225Z,200
2016-09-24T12:21:17.493Z,200
2016-09-24T12:22:17.471Z,200
2016-09-24T12:23:17.432Z,200
2016-09-24T12:24:17.109Z,195
2016-09-24T12:25:17.077Z,195
2016-09-24T12:26:17.347Z,195
2016-09-24T12:27:16.711Z,195
2016-09-24T12:28:16.681Z,200
2016-09-24T12:29:16.963Z,195
2016-09-24T12:30:17.244Z,190
2016-09-24T12:31:16.606Z,190
2016-09-24T12:32:16.873Z,190
2016-09-24T12:33:16.256Z,190
2016-09-24T12:34:17.126Z,190
2016-09-24T12:35:17.095Z,190
2016-09-24T12:36:16.149Z,190
2016-09-24T12:37:16.727Z,185
2016-09-24T12:38:16.399Z,185
2016-09-24T12:39:16.681Z,185
2016-09-24T12:40:16.949Z,185
2016-09-24T12:41:16.917Z,180
2016-09-24T12:42:16.891Z,180
2016-09-24T12:43:16.858Z,180
2016-09-24T12:44:16.529Z,180
2016-09-24T12:45:16.804Z,180
2016-09-24T12:46:16.467Z,180
2016-09-24T12:47:16.143Z,175
2016-09-24T12:48:16.409Z,175
2016-09-24T12:49:16.689Z,175
2016-09-24T12:50:16.352Z,175
2016-09-24T12:51:16.633Z,175
2016-09-24T12:52:16.297Z,175
2016-09-24T12:53:16.576Z,175
2016-09-24T12:54:16.537Z,175
2016-09-24T12:55:16.512Z,175
2016-09-24T12:56:16.480Z,170
2016-09-24T12:57:16.454Z,170
2016-09-24T12:58:16.116Z,170
2016-09-24T12:59:16.399Z,170
2016-09-24T13:00:16.067Z,170
2016-09-24T13:01:16.035Z,170
2016-09-24T13:02:16.308Z,170
2016-09-24T13:03:15.977Z,170
2016-09-24T13:04:15.651Z,170
2016-09-24T13:05:16.230Z,165
2016-09-24T13:06:16.200Z,165
2016-09-24T13:07:16.167Z,165
2016-09-24T13:08:16.127Z,165
2016-09-24T13:09:15.810Z,165
2016-09-24T13:10:16.089Z,165
2016-09-24T13:11:16.051Z,165
2016-09-24T13:12:16.019Z,170
2016-09-24T13:13:15.996Z,165
2016-09-24T13:14:15.974Z,165
2016-09-24T13:15:15.329Z,160
2016-09-24T13:16:15.909Z,160
2016-09-24T13:17:15.585Z,160
2016-09-24T13:18:15.857Z,160
2016-09-24T13:19:15.524Z,160
2016-09-24T13:20:15.504Z,160
2016-09-24T13:21:15.464Z,155
2016-09-24T13:22:15.734Z,155
2016-09-24T13:23:15.429Z,155
2016-09-24T13:24:15.384Z,155
2016-09-24T13:25:15.658Z,155
2016-09-24T13:26:15.313Z,155
2016-09-24T13:27:15.599Z,150
2016-09-24T13:28:15.561Z,150
2016-09-24T13:29:15.231Z,150
2016-09-24T13:30:14.902Z,150
2016-09-24T13:31:15.469Z,150
2016-09-24T13:32:15.147Z,150
2016-09-24T13:33:15.422Z,145
2016-09-24T13:34:15.397Z,145
2016-09-24T13:35:15.360Z,145
2016-09-24T13:36:15.030Z,140
2016-09-24T13:37:15.014Z,140
2016-09-24T13:38:14.676Z,140
2016-09-24T13:39:14.653Z,140
2016-09-24T13:40:15.223Z,140
2016-09-24T13:41:14.901Z,140
2016-09-24T13:42:15.167Z,140
2016-09-24T13:43:14.529Z,140
2016-09-24T13:44:15.111Z,140
2016-09-24T13:45:15.082Z,140
2016-09-24T13:46:14.749Z,140
2016-09-24T13:47:14.415Z,140
2016-09-24T13:48:14.997Z,140
2016-09-24T13:49:14.664Z,135
2016-09-24T13:50:14.628Z,135
2016-09-24T13:51:14.926Z,135
2016-09-24T13:52:14.876Z,135
2016-09-24T13:53:14.541Z,135
2016-09-24T13:54:14.816Z,135
2016-09-24T13:55:14.490Z,135
2016-09-24T13:56:14.768Z,135
2016-09-24T13:57:14.428Z,135
2016-09-24T13:58:14.704Z,135
2016-09-24T13:59:14.371Z,135
2016-09-24T14:00:14.701Z,135
2016-09-24T14:01:13.735Z,130
2016-09-24T14:02:14.586Z,130